Terminal Aerodrome Forecast
Issued by NWS

Home | Current Version | Previous Version | Graphics & Text | Print | Product List | Glossary On
Versions: 1 2 3 4 5 6 7 8 9 10 11 12 13 14 15 16 17 18
000
FTUS43 KTOP 230533
TAFMHK
TAF
KMHK 230533Z 2306/2406 06009KT P6SM SCT150
     FM231400 08011G21KT P6SM VCSH BKN100
     FM231700 10012G21KT P6SM BKN035
     FM240000 13011KT P6SM SCT020
     FM240500 22010KT P6SM FEW020=

USA.gov is the U.S. government's official web portal to all federal, state and local government web resources and services.